sensor_id;sensor_type;location;lat;lon;timestamp;temperature;humidity
38746;DHT22;24488;0.000;0.000;2023-04-03T00:00:55;21.40;41.40
38746;DHT22;24488;0.000;0.000;2023-04-03T00:03:21;21.40;41.40
38746;DHT22;24488;0.000;0.000;2023-04-03T00:05:47;21.40;41.40
38746;DHT22;24488;0.000;0.000;2023-04-03T00:08:13;21.40;40.90
38746;DHT22;24488;0.000;0.000;2023-04-03T00:10:38;21.40;41.30
38746;DHT22;24488;0.000;0.000;2023-04-03T00:13:04;21.40;41.20
38746;DHT22;24488;0.000;0.000;2023-04-03T00:15:31;21.40;41.30
38746;DHT22;24488;0.000;0.000;2023-04-03T00:17:57;21.40;40.70
38746;DHT22;24488;0.000;0.000;2023-04-03T00:20:23;21.40;41.20
38746;DHT22;24488;0.000;0.000;2023-04-03T00:22:48;21.40;41.20
38746;DHT22;24488;0.000;0.000;2023-04-03T00:25:14;21.40;41.30
38746;DHT22;24488;0.000;0.000;2023-04-03T00:27:40;21.30;40.70
38746;DHT22;24488;0.000;0.000;2023-04-03T00:30:06;21.30;41.20
38746;DHT22;24488;0.000;0.000;2023-04-03T00:32:34;21.30;41.10
38746;DHT22;24488;0.000;0.000;2023-04-03T00:34:59;21.30;41.10
38746;DHT22;24488;0.000;0.000;2023-04-03T00:37:25;21.30;40.60
38746;DHT22;24488;0.000;0.000;2023-04-03T00:39:50;21.30;41.10
38746;DHT22;24488;0.000;0.000;2023-04-03T00:42:16;21.30;41.10
38746;DHT22;24488;0.000;0.000;2023-04-03T00:47:08;21.30;41.10
38746;DHT22;24488;0.000;0.000;2023-04-03T00:49:38;21.30;40.70
38746;DHT22;24488;0.000;0.000;2023-04-03T00:52:05;21.30;41.20
38746;DHT22;24488;0.000;0.000;2023-04-03T00:54:33;21.30;41.20
38746;DHT22;24488;0.000;0.000;2023-04-03T00:57:00;21.30;41.10
38746;DHT22;24488;0.000;0.000;2023-04-03T00:59:33;21.30;40.60
38746;DHT22;24488;0.000;0.000;2023-04-03T01:02:00;21.30;41.10
38746;DHT22;24488;0.000;0.000;2023-04-03T01:04:29;21.30;41.10
38746;DHT22;24488;0.000;0.000;2023-04-03T01:09:45;21.30;40.60
38746;DHT22;24488;0.000;0.000;2023-04-03T01:12:22;21.40;41.10
38746;DHT22;24488;0.000;0.000;2023-04-03T01:14:53;21.30;41.00
38746;DHT22;24488;0.000;0.000;2023-04-03T01:20:14;21.30;40.60
38746;DHT22;24488;0.000;0.000;2023-04-03T01:25:32;21.30;41.00
38746;DHT22;24488;0.000;0.000;2023-04-03T01:27:57;21.30;40.50
38746;DHT22;24488;0.000;0.000;2023-04-03T01:30:24;21.30;40.90
38746;DHT22;24488;0.000;0.000;2023-04-03T01:32:53;21.30;40.90
38746;DHT22;24488;0.000;0.000;2023-04-03T01:35:19;21.30;40.90
38746;DHT22;24488;0.000;0.000;2023-04-03T01:37:44;21.30;40.40
38746;DHT22;24488;0.000;0.000;2023-04-03T01:40:10;22.40;41.40
38746;DHT22;24488;0.000;0.000;2023-04-03T01:42:36;21.30;40.90
38746;DHT22;24488;0.000;0.000;2023-04-03T01:45:01;21.30;41.00
38746;DHT22;24488;0.000;0.000;2023-04-03T01:47:27;21.30;40.50
38746;DHT22;24488;0.000;0.000;2023-04-03T01:49:53;21.30;41.00
38746;DHT22;24488;0.000;0.000;2023-04-03T01:52:18;21.30;41.10
38746;DHT22;24488;0.000;0.000;2023-04-03T01:54:44;21.30;41.00
38746;DHT22;24488;0.000;0.000;2023-04-03T01:57:10;21.30;41.10
38746;DHT22;24488;0.000;0.000;2023-04-03T01:59:35;21.30;40.60
38746;DHT22;24488;0.000;0.000;2023-04-03T02:02:01;21.30;41.00
38746;DHT22;24488;0.000;0.000;2023-04-03T02:04:26;21.30;41.00
38746;DHT22;24488;0.000;0.000;2023-04-03T02:06:52;21.30;41.00
38746;DHT22;24488;0.000;0.000;2023-04-03T02:09:17;21.30;40.40
38746;DHT22;24488;0.000;0.000;2023-04-03T02:11:43;21.40;40.90
38746;DHT22;24488;0.000;0.000;2023-04-03T02:14:08;21.40;41.00
38746;DHT22;24488;0.000;0.000;2023-04-03T02:16:34;21.30;40.90
38746;DHT22;24488;0.000;0.000;2023-04-03T02:19:00;21.30;40.50
38746;DHT22;24488;0.000;0.000;2023-04-03T02:21:25;21.30;41.00
38746;DHT22;24488;0.000;0.000;2023-04-03T02:23:51;21.30;40.90
38746;DHT22;24488;0.000;0.000;2023-04-03T02:26:17;21.30;40.90
38746;DHT22;24488;0.000;0.000;2023-04-03T02:28:42;21.30;40.40
38746;DHT22;24488;0.000;0.000;2023-04-03T02:31:08;21.30;40.80
38746;DHT22;24488;0.000;0.000;2023-04-03T02:33:34;21.30;40.80
38746;DHT22;24488;0.000;0.000;2023-04-03T02:36:02;21.30;40.80
38746;DHT22;24488;0.000;0.000;2023-04-03T02:38:28;21.30;40.40
38746;DHT22;24488;0.000;0.000;2023-04-03T02:40:59;21.30;40.90
38746;DHT22;24488;0.000;0.000;2023-04-03T02:43:28;21.30;40.90
38746;DHT22;24488;0.000;0.000;2023-04-03T02:45:54;21.30;40.90
38746;DHT22;24488;0.000;0.000;2023-04-03T02:48:19;21.30;40.50
38746;DHT22;24488;0.000;0.000;2023-04-03T02:50:45;21.30;41.00
38746;DHT22;24488;0.000;0.000;2023-04-03T02:53:10;21.30;40.90
38746;DHT22;24488;0.000;0.000;2023-04-03T02:55:36;21.30;40.90
38746;DHT22;24488;0.000;0.000;2023-04-03T02:58:02;21.30;40.50
38746;DHT22;24488;0.000;0.000;2023-04-03T03:00:28;21.30;40.90
38746;DHT22;24488;0.000;0.000;2023-04-03T03:02:54;21.30;40.90
38746;DHT22;24488;0.000;0.000;2023-04-03T03:05:20;21.30;40.90
38746;DHT22;24488;0.000;0.000;2023-04-03T03:07:47;21.20;40.30
38746;DHT22;24488;0.000;0.000;2023-04-03T03:10:13;21.30;40.90
38746;DHT22;24488;0.000;0.000;2023-04-03T03:12:38;21.30;40.80
38746;DHT22;24488;0.000;0.000;2023-04-03T03:15:06;21.30;40.80
38746;DHT22;24488;0.000;0.000;2023-04-03T03:17:32;21.20;40.30
38746;DHT22;24488;0.000;0.000;2023-04-03T03:19:58;21.20;40.80
38746;DHT22;24488;0.000;0.000;2023-04-03T03:22:23;21.20;40.80
38746;DHT22;24488;0.000;0.000;2023-04-03T03:24:49;21.20;40.70
38746;DHT22;24488;0.000;0.000;2023-04-03T03:27:15;21.30;40.70
38746;DHT22;24488;0.000;0.000;2023-04-03T03:29:41;21.30;40.30
38746;DHT22;24488;0.000;0.000;2023-04-03T03:32:07;21.20;40.80
38746;DHT22;24488;0.000;0.000;2023-04-03T03:34:32;21.20;40.80
38746;DHT22;24488;0.000;0.000;2023-04-03T03:36:58;21.20;40.80
38746;DHT22;24488;0.000;0.000;2023-04-03T03:39:24;21.20;40.40
38746;DHT22;24488;0.000;0.000;2023-04-03T03:41:50;21.20;40.80
38746;DHT22;24488;0.000;0.000;2023-04-03T03:44:15;21.20;40.80
38746;DHT22;24488;0.000;0.000;2023-04-03T03:46:41;21.20;40.80
38746;DHT22;24488;0.000;0.000;2023-04-03T03:49:06;21.20;40.30
38746;DHT22;24488;0.000;0.000;2023-04-03T03:51:32;21.20;40.70
38746;DHT22;24488;0.000;0.000;2023-04-03T03:53:57;21.20;40.80
38746;DHT22;24488;0.000;0.000;2023-04-03T03:56:23;21.20;40.70
38746;DHT22;24488;0.000;0.000;2023-04-03T03:58:49;21.20;40.20
38746;DHT22;24488;0.000;0.000;2023-04-03T04:01:14;21.20;40.70
38746;DHT22;24488;0.000;0.000;2023-04-03T04:03:41;21.20;40.70
38746;DHT22;24488;0.000;0.000;2023-04-03T04:06:07;21.20;40.70
38746;DHT22;24488;0.000;0.000;2023-04-03T04:08:33;21.20;40.20
38746;DHT22;24488;0.000;0.000;2023-04-03T04:10:58;21.20;40.70
38746;DHT22;24488;0.000;0.000;2023-04-03T04:13:24;21.20;40.70
38746;DHT22;24488;0.000;0.000;2023-04-03T04:15:49;21.20;40.70
38746;DHT22;24488;0.000;0.000;2023-04-03T04:18:15;21.20;40.20
38746;DHT22;24488;0.000;0.000;2023-04-03T04:20:40;21.20;40.60
38746;DHT22;24488;0.000;0.000;2023-04-03T04:23:06;21.20;40.70
38746;DHT22;24488;0.000;0.000;2023-04-03T04:25:32;21.20;40.60
38746;DHT22;24488;0.000;0.000;2023-04-03T04:27:58;21.20;40.20
38746;DHT22;24488;0.000;0.000;2023-04-03T04:30:23;21.20;40.60
38746;DHT22;24488;0.000;0.000;2023-04-03T04:32:49;21.20;40.60
38746;DHT22;24488;0.000;0.000;2023-04-03T04:35:14;21.20;40.60
38746;DHT22;24488;0.000;0.000;2023-04-03T04:37:40;21.20;40.10
38746;DHT22;24488;0.000;0.000;2023-04-03T04:40:06;21.20;40.60
38746;DHT22;24488;0.000;0.000;2023-04-03T04:42:32;21.20;40.60
38746;DHT22;24488;0.000;0.000;2023-04-03T04:44:58;21.20;40.60
38746;DHT22;24488;0.000;0.000;2023-04-03T04:47:23;21.20;40.60
38746;DHT22;24488;0.000;0.000;2023-04-03T04:49:49;21.20;40.20
38746;DHT22;24488;0.000;0.000;2023-04-03T04:52:14;21.10;40.70
38746;DHT22;24488;0.000;0.000;2023-04-03T04:54:40;21.20;40.80
38746;DHT22;24488;0.000;0.000;2023-04-03T04:57:05;21.20;40.80
38746;DHT22;24488;0.000;0.000;2023-04-03T04:59:31;21.10;40.30
38746;DHT22;24488;0.000;0.000;2023-04-03T05:01:57;21.20;40.80
38746;DHT22;24488;0.000;0.000;2023-04-03T05:04:23;21.20;40.80
38746;DHT22;24488;0.000;0.000;2023-04-03T05:06:49;21.10;40.70
38746;DHT22;24488;0.000;0.000;2023-04-03T05:09:14;21.20;40.30
38746;DHT22;24488;0.000;0.000;2023-04-03T05:11:40;21.20;40.70
38746;DHT22;24488;0.000;0.000;2023-04-03T05:14:07;21.20;40.70
38746;DHT22;24488;0.000;0.000;2023-04-03T05:16:33;21.90;41.00
38746;DHT22;24488;0.000;0.000;2023-04-03T05:18:58;21.10;40.10
38746;DHT22;24488;0.000;0.000;2023-04-03T05:21:24;21.20;40.70
38746;DHT22;24488;0.000;0.000;2023-04-03T05:23:51;21.20;40.60
38746;DHT22;24488;0.000;0.000;2023-04-03T05:26:17;21.20;40.60
38746;DHT22;24488;0.000;0.000;2023-04-03T05:28:42;21.10;40.10
38746;DHT22;24488;0.000;0.000;2023-04-03T05:31:08;21.10;40.50
38746;DHT22;24488;0.000;0.000;2023-04-03T05:33:34;21.20;40.50
38746;DHT22;24488;0.000;0.000;2023-04-03T05:36:05;21.10;40.60
38746;DHT22;24488;0.000;0.000;2023-04-03T05:38:31;21.10;40.10
38746;DHT22;24488;0.000;0.000;2023-04-03T05:40:57;21.10;40.50
38746;DHT22;24488;0.000;0.000;2023-04-03T05:43:23;21.10;40.50
38746;DHT22;24488;0.000;0.000;2023-04-03T05:45:48;21.10;40.50
38746;DHT22;24488;0.000;0.000;2023-04-03T05:48:14;21.10;40.00
38746;DHT22;24488;0.000;0.000;2023-04-03T05:50:40;21.10;40.50
38746;DHT22;24488;0.000;0.000;2023-04-03T05:53:09;21.10;40.50
38746;DHT22;24488;0.000;0.000;2023-04-03T05:55:44;21.10;40.50
38746;DHT22;24488;0.000;0.000;2023-04-03T05:58:10;21.10;40.00
38746;DHT22;24488;0.000;0.000;2023-04-03T06:00:35;21.10;40.50
38746;DHT22;24488;0.000;0.000;2023-04-03T06:03:01;21.10;40.50
38746;DHT22;24488;0.000;0.000;2023-04-03T06:05:26;21.10;40.50
38746;DHT22;24488;0.000;0.000;2023-04-03T06:07:53;21.10;40.00
38746;DHT22;24488;0.000;0.000;2023-04-03T06:10:18;21.20;40.10
38746;DHT22;24488;0.000;0.000;2023-04-03T06:12:45;21.10;40.50
38746;DHT22;24488;0.000;0.000;2023-04-03T06:15:11;21.20;40.50
38746;DHT22;24488;0.000;0.000;2023-04-03T06:17:37;21.10;40.00
38746;DHT22;24488;0.000;0.000;2023-04-03T06:20:03;21.20;40.50
38746;DHT22;24488;0.000;0.000;2023-04-03T06:22:29;21.20;40.50
38746;DHT22;24488;0.000;0.000;2023-04-03T06:24:55;21.10;40.40
38746;DHT22;24488;0.000;0.000;2023-04-03T06:27:21;21.20;40.00
38746;DHT22;24488;0.000;0.000;2023-04-03T06:29:47;21.20;40.40
38746;DHT22;24488;0.000;0.000;2023-04-03T06:32:14;21.20;40.40
38746;DHT22;24488;0.000;0.000;2023-04-03T06:34:40;21.20;40.40
38746;DHT22;24488;0.000;0.000;2023-04-03T06:37:10;21.20;39.90
38746;DHT22;24488;0.000;0.000;2023-04-03T06:39:40;21.20;40.40
38746;DHT22;24488;0.000;0.000;2023-04-03T06:42:07;21.20;40.40
38746;DHT22;24488;0.000;0.000;2023-04-03T06:44:32;21.10;40.40
38746;DHT22;24488;0.000;0.000;2023-04-03T06:46:59;21.10;39.90
38746;DHT22;24488;0.000;0.000;2023-04-03T06:49:25;21.10;40.40
38746;DHT22;24488;0.000;0.000;2023-04-03T06:51:51;21.10;40.30
38746;DHT22;24488;0.000;0.000;2023-04-03T06:54:17;21.10;40.40
38746;DHT22;24488;0.000;0.000;2023-04-03T06:56:43;21.10;39.90
38746;DHT22;24488;0.000;0.000;2023-04-03T06:59:09;21.10;40.40
38746;DHT22;24488;0.000;0.000;2023-04-03T07:01:35;21.10;40.30
38746;DHT22;24488;0.000;0.000;2023-04-03T07:04:01;21.10;40.30
38746;DHT22;24488;0.000;0.000;2023-04-03T07:06:26;21.10;39.80
38746;DHT22;24488;0.000;0.000;2023-04-03T07:08:52;21.10;40.30
38746;DHT22;24488;0.000;0.000;2023-04-03T07:11:18;21.10;40.80
38746;DHT22;24488;0.000;0.000;2023-04-03T07:13:43;21.10;40.30
38746;DHT22;24488;0.000;0.000;2023-04-03T07:16:09;21.10;39.80
38746;DHT22;24488;0.000;0.000;2023-04-03T07:18:35;21.10;40.30
38746;DHT22;24488;0.000;0.000;2023-04-03T07:21:01;21.10;40.30
38746;DHT22;24488;0.000;0.000;2023-04-03T07:23:27;21.20;40.20
38746;DHT22;24488;0.000;0.000;2023-04-03T07:25:53;21.10;40.20
38746;DHT22;24488;0.000;0.000;2023-04-03T07:28:19;21.10;39.80
38746;DHT22;24488;0.000;0.000;2023-04-03T07:30:46;21.10;40.30
38746;DHT22;24488;0.000;0.000;2023-04-03T07:33:16;21.10;40.20
38746;DHT22;24488;0.000;0.000;2023-04-03T07:35:43;21.10;40.20
38746;DHT22;24488;0.000;0.000;2023-04-03T07:38:09;21.10;39.80
38746;DHT22;24488;0.000;0.000;2023-04-03T07:40:35;21.10;40.30
38746;DHT22;24488;0.000;0.000;2023-04-03T07:43:01;21.10;40.30
38746;DHT22;24488;0.000;0.000;2023-04-03T07:45:27;21.10;40.30
38746;DHT22;24488;0.000;0.000;2023-04-03T07:47:53;21.10;39.80
38746;DHT22;24488;0.000;0.000;2023-04-03T07:50:18;21.10;40.30
38746;DHT22;24488;0.000;0.000;2023-04-03T07:52:44;21.10;40.30
38746;DHT22;24488;0.000;0.000;2023-04-03T07:55:10;21.10;40.30
38746;DHT22;24488;0.000;0.000;2023-04-03T07:57:36;21.10;39.80
38746;DHT22;24488;0.000;0.000;2023-04-03T08:00:03;21.10;40.30
38746;DHT22;24488;0.000;0.000;2023-04-03T08:02:30;21.10;40.30
38746;DHT22;24488;0.000;0.000;2023-04-03T08:04:57;21.10;40.20
38746;DHT22;24488;0.000;0.000;2023-04-03T08:07:23;21.10;39.80
38746;DHT22;24488;0.000;0.000;2023-04-03T08:09:49;21.20;40.30
38746;DHT22;24488;0.000;0.000;2023-04-03T08:12:16;21.10;40.30
38746;DHT22;24488;0.000;0.000;2023-04-03T08:14:41;21.10;40.20
38746;DHT22;24488;0.000;0.000;2023-04-03T08:17:07;21.10;39.80
38746;DHT22;24488;0.000;0.000;2023-04-03T08:19:37;21.10;40.20
38746;DHT22;24488;0.000;0.000;2023-04-03T08:22:03;21.10;40.20
38746;DHT22;24488;0.000;0.000;2023-04-03T08:24:30;21.10;40.20
38746;DHT22;24488;0.000;0.000;2023-04-03T08:26:56;21.10;39.70
38746;DHT22;24488;0.000;0.000;2023-04-03T08:29:22;21.10;40.20
38746;DHT22;24488;0.000;0.000;2023-04-03T08:31:48;21.10;40.10
38746;DHT22;24488;0.000;0.000;2023-04-03T08:34:15;21.10;40.10
38746;DHT22;24488;0.000;0.000;2023-04-03T08:36:42;21.10;39.60
38746;DHT22;24488;0.000;0.000;2023-04-03T08:39:08;21.10;40.10
38746;DHT22;24488;0.000;0.000;2023-04-03T08:41:34;21.10;40.10
38746;DHT22;24488;0.000;0.000;2023-04-03T08:49:28;21.10;40.10
38746;DHT22;24488;0.000;0.000;2023-04-03T08:51:54;21.20;40.10
38746;DHT22;24488;0.000;0.000;2023-04-03T08:54:28;21.00;40.10
38746;DHT22;24488;0.000;0.000;2023-04-03T08:56:55;21.00;39.60
38746;DHT22;24488;0.000;0.000;2023-04-03T08:59:24;21.00;40.10
38746;DHT22;24488;0.000;0.000;2023-04-03T09:01:52;21.00;40.10
38746;DHT22;24488;0.000;0.000;2023-04-03T09:04:19;21.00;40.70
38746;DHT22;24488;0.000;0.000;2023-04-03T09:06:52;21.00;39.60
38746;DHT22;24488;0.000;0.000;2023-04-03T09:23:13;21.00;40.00
38746;DHT22;24488;0.000;0.000;2023-04-03T09:26:09;21.00;39.60
38746;DHT22;24488;0.000;0.000;2023-04-03T09:28:39;21.10;40.10
38746;DHT22;24488;0.000;0.000;2023-04-03T09:31:26;21.10;40.00
38746;DHT22;24488;0.000;0.000;2023-04-03T09:33:59;21.00;40.00
38746;DHT22;24488;0.000;0.000;2023-04-03T09:36:44;21.00;39.60
38746;DHT22;24488;0.000;0.000;2023-04-03T09:39:18;21.00;40.10
38746;DHT22;24488;0.000;0.000;2023-04-03T09:41:59;21.00;40.10
38746;DHT22;24488;0.000;0.000;2023-04-03T09:44:34;21.00;40.00
38746;DHT22;24488;0.000;0.000;2023-04-03T09:47:17;21.00;39.60
38746;DHT22;24488;0.000;0.000;2023-04-03T09:49:43;21.00;40.10
38746;DHT22;24488;0.000;0.000;2023-04-03T09:52:25;21.10;40.10
38746;DHT22;24488;0.000;0.000;2023-04-03T09:54:51;21.00;40.00
38746;DHT22;24488;0.000;0.000;2023-04-03T09:57:17;21.00;39.50
38746;DHT22;24488;0.000;0.000;2023-04-03T09:59:56;21.00;40.00
38746;DHT22;24488;0.000;0.000;2023-04-03T10:02:34;21.00;40.00
38746;DHT22;24488;0.000;0.000;2023-04-03T10:05:02;21.00;40.00
38746;DHT22;24488;0.000;0.000;2023-04-03T10:07:33;21.00;39.50
38746;DHT22;24488;0.000;0.000;2023-04-03T10:10:19;21.00;40.00
38746;DHT22;24488;0.000;0.000;2023-04-03T10:12:48;21.00;40.00
38746;DHT22;24488;0.000;0.000;2023-04-03T10:15:15;21.00;40.00
38746;DHT22;24488;0.000;0.000;2023-04-03T10:17:49;21.00;39.50
38746;DHT22;24488;0.000;0.000;2023-04-03T10:20:25;21.00;39.90
38746;DHT22;24488;0.000;0.000;2023-04-03T10:23:14;21.00;39.50
38746;DHT22;24488;0.000;0.000;2023-04-03T10:30:58;21.00;39.40
38746;DHT22;24488;0.000;0.000;2023-04-03T10:33:42;21.00;40.50
38746;DHT22;24488;0.000;0.000;2023-04-03T10:36:29;21.00;39.80
38746;DHT22;24488;0.000;0.000;2023-04-03T10:39:15;21.00;39.80
38746;DHT22;24488;0.000;0.000;2023-04-03T10:41:49;21.00;39.40
38746;DHT22;24488;0.000;0.000;2023-04-03T10:52:48;21.10;39.90
38746;DHT22;24488;0.000;0.000;2023-04-03T10:57:56;21.00;39.90
38746;DHT22;24488;0.000;0.000;2023-04-03T11:00:40;21.00;39.40
38746;DHT22;24488;0.000;0.000;2023-04-03T11:03:12;22.00;40.40
38746;DHT22;24488;0.000;0.000;2023-04-03T11:05:50;21.00;39.90
38746;DHT22;24488;0.000;0.000;2023-04-03T11:11:11;21.00;39.50
38746;DHT22;24488;0.000;0.000;2023-04-03T11:13:40;21.00;39.90
38746;DHT22;24488;0.000;0.000;2023-04-03T11:16:08;21.00;39.90
38746;DHT22;24488;0.000;0.000;2023-04-03T11:18:40;21.00;39.90
38746;DHT22;24488;0.000;0.000;2023-04-03T11:21:13;21.00;39.50
38746;DHT22;24488;0.000;0.000;2023-04-03T11:23:42;21.00;40.50
38746;DHT22;24488;0.000;0.000;2023-04-03T11:26:11;21.00;39.90
38746;DHT22;24488;0.000;0.000;2023-04-03T11:28:37;21.00;39.90
38746;DHT22;24488;0.000;0.000;2023-04-03T11:36:41;21.00;39.80
38746;DHT22;24488;0.000;0.000;2023-04-03T11:41:54;20.90;39.30
38746;DHT22;24488;0.000;0.000;2023-04-03T11:44:34;21.00;39.80
38746;DHT22;24488;0.000;0.000;2023-04-03T11:47:08;20.90;39.80
38746;DHT22;24488;0.000;0.000;2023-04-03T11:49:55;21.00;39.30
38746;DHT22;24488;0.000;0.000;2023-04-03T12:05:51;21.00;39.70
38746;DHT22;24488;0.000;0.000;2023-04-03T12:16:19;21.00;39.70
38746;DHT22;24488;0.000;0.000;2023-04-03T12:22:04;21.00;39.20
38746;DHT22;24488;0.000;0.000;2023-04-03T12:34:38;21.00;39.30
38746;DHT22;24488;0.000;0.000;2023-04-03T12:39:54;21.00;39.80
38746;DHT22;24488;0.000;0.000;2023-04-03T12:42:30;21.00;39.80
38746;DHT22;24488;0.000;0.000;2023-04-03T12:45:10;21.00;39.30
38746;DHT22;24488;0.000;0.000;2023-04-03T12:47:44;21.00;39.80
38746;DHT22;24488;0.000;0.000;2023-04-03T12:50:16;21.00;39.80
38746;DHT22;24488;0.000;0.000;2023-04-03T12:53:11;21.00;39.80
38746;DHT22;24488;0.000;0.000;2023-04-03T12:55:53;20.90;39.30
38746;DHT22;24488;0.000;0.000;2023-04-03T12:58:23;21.00;39.70
38746;DHT22;24488;0.000;0.000;2023-04-03T13:01:00;21.00;39.70
38746;DHT22;24488;0.000;0.000;2023-04-03T13:03:26;21.00;39.70
38746;DHT22;24488;0.000;0.000;2023-04-03T13:05:54;20.90;39.20
38746;DHT22;24488;0.000;0.000;2023-04-03T13:08:22;20.90;39.70
38746;DHT22;24488;0.000;0.000;2023-04-03T13:10:52;21.00;39.70
38746;DHT22;24488;0.000;0.000;2023-04-03T13:13:20;20.90;39.60
38746;DHT22;24488;0.000;0.000;2023-04-03T13:15:48;20.90;39.20
38746;DHT22;24488;0.000;0.000;2023-04-03T13:20:50;20.90;39.60
38746;DHT22;24488;0.000;0.000;2023-04-03T13:23:16;20.90;39.60
38746;DHT22;24488;0.000;0.000;2023-04-03T13:25:44;20.90;39.10
38746;DHT22;24488;0.000;0.000;2023-04-03T13:28:12;20.90;39.60
38746;DHT22;24488;0.000;0.000;2023-04-03T13:30:40;20.90;39.50
38746;DHT22;24488;0.000;0.000;2023-04-03T13:33:19;20.90;39.50
38746;DHT22;24488;0.000;0.000;2023-04-03T13:35:47;20.90;39.00
38746;DHT22;24488;0.000;0.000;2023-04-03T13:40:54;21.00;39.50
38746;DHT22;24488;0.000;0.000;2023-04-03T13:43:23;20.90;39.50
38746;DHT22;24488;0.000;0.000;2023-04-03T13:46:33;20.90;39.00
38746;DHT22;24488;0.000;0.000;2023-04-03T13:48:43;20.90;39.50
38746;DHT22;24488;0.000;0.000;2023-04-03T13:53:51;20.90;39.50
38746;DHT22;24488;0.000;0.000;2023-04-03T13:58:52;20.90;39.50
38746;DHT22;24488;0.000;0.000;2023-04-03T14:01:23;20.90;39.40
38746;DHT22;24488;0.000;0.000;2023-04-03T14:06:26;20.90;39.50
38746;DHT22;24488;0.000;0.000;2023-04-03T14:08:51;20.90;39.50
38746;DHT22;24488;0.000;0.000;2023-04-03T14:11:18;20.90;39.60
38746;DHT22;24488;0.000;0.000;2023-04-03T14:13:49;20.90;39.10
38746;DHT22;24488;0.000;0.000;2023-04-03T14:16:16;20.90;39.50
38746;DHT22;24488;0.000;0.000;2023-04-03T14:18:45;21.00;39.50
38746;DHT22;24488;0.000;0.000;2023-04-03T14:21:12;20.90;39.50
38746;DHT22;24488;0.000;0.000;2023-04-03T14:23:38;20.90;39.50
38746;DHT22;24488;0.000;0.000;2023-04-03T14:26:08;20.90;39.00
38746;DHT22;24488;0.000;0.000;2023-04-03T14:28:36;21.00;39.50
38746;DHT22;24488;0.000;0.000;2023-04-03T14:31:01;21.00;39.50
38746;DHT22;24488;0.000;0.000;2023-04-03T14:33:27;20.90;39.50
38746;DHT22;24488;0.000;0.000;2023-04-03T14:35:56;21.00;39.00
38746;DHT22;24488;0.000;0.000;2023-04-03T14:38:25;21.00;40.00
38746;DHT22;24488;0.000;0.000;2023-04-03T14:40:53;21.00;39.50
38746;DHT22;24488;0.000;0.000;2023-04-03T14:43:19;20.90;39.40
38746;DHT22;24488;0.000;0.000;2023-04-03T14:45:46;20.90;38.90
38746;DHT22;24488;0.000;0.000;2023-04-03T14:48:19;20.90;39.40
38746;DHT22;24488;0.000;0.000;2023-04-03T14:50:47;20.90;39.40
38746;DHT22;24488;0.000;0.000;2023-04-03T14:53:14;20.90;39.40
38746;DHT22;24488;0.000;0.000;2023-04-03T14:55:41;20.90;38.90
38746;DHT22;24488;0.000;0.000;2023-04-03T14:58:14;20.90;39.40
38746;DHT22;24488;0.000;0.000;2023-04-03T15:00:41;20.90;39.40
38746;DHT22;24488;0.000;0.000;2023-04-03T15:03:10;20.90;40.00
38746;DHT22;24488;0.000;0.000;2023-04-03T15:05:39;20.90;38.90
38746;DHT22;24488;0.000;0.000;2023-04-03T15:08:04;20.90;39.40
38746;DHT22;24488;0.000;0.000;2023-04-03T15:10:30;20.90;39.40
38746;DHT22;24488;0.000;0.000;2023-04-03T15:12:56;20.90;39.40
38746;DHT22;24488;0.000;0.000;2023-04-03T15:15:23;20.90;38.90
38746;DHT22;24488;0.000;0.000;2023-04-03T15:17:53;20.90;39.40
38746;DHT22;24488;0.000;0.000;2023-04-03T15:20:21;20.90;39.30
38746;DHT22;24488;0.000;0.000;2023-04-03T15:22:49;20.90;39.30
38746;DHT22;24488;0.000;0.000;2023-04-03T15:25:14;20.90;38.80
38746;DHT22;24488;0.000;0.000;2023-04-03T15:27:41;20.90;39.30
38746;DHT22;24488;0.000;0.000;2023-04-03T15:30:11;20.90;39.40
38746;DHT22;24488;0.000;0.000;2023-04-03T15:32:38;20.90;39.30
38746;DHT22;24488;0.000;0.000;2023-04-03T15:35:04;20.90;38.80
38746;DHT22;24488;0.000;0.000;2023-04-03T15:37:30;20.90;39.30
38746;DHT22;24488;0.000;0.000;2023-04-03T15:39:56;20.90;39.30
38746;DHT22;24488;0.000;0.000;2023-04-03T15:42:21;20.90;39.30
38746;DHT22;24488;0.000;0.000;2023-04-03T15:44:47;20.90;38.90
38746;DHT22;24488;0.000;0.000;2023-04-03T15:47:12;20.90;39.30
38746;DHT22;24488;0.000;0.000;2023-04-03T15:49:38;20.90;39.30
38746;DHT22;24488;0.000;0.000;2023-04-03T15:52:04;20.90;39.40
38746;DHT22;24488;0.000;0.000;2023-04-03T15:54:30;20.00;38.40
38746;DHT22;24488;0.000;0.000;2023-04-03T15:56:55;20.90;39.40
38746;DHT22;24488;0.000;0.000;2023-04-03T15:59:21;20.90;39.30
38746;DHT22;24488;0.000;0.000;2023-04-03T16:01:47;20.90;39.40
38746;DHT22;24488;0.000;0.000;2023-04-03T16:04:13;20.90;38.80
38746;DHT22;24488;0.000;0.000;2023-04-03T16:06:39;20.90;39.30
38746;DHT22;24488;0.000;0.000;2023-04-03T16:09:05;20.90;39.30
38746;DHT22;24488;0.000;0.000;2023-04-03T16:11:32;20.90;39.30
38746;DHT22;24488;0.000;0.000;2023-04-03T16:13:57;20.90;38.80
38746;DHT22;24488;0.000;0.000;2023-04-03T16:16:23;20.90;39.40
38746;DHT22;24488;0.000;0.000;2023-04-03T16:18:51;20.90;39.30
38746;DHT22;24488;0.000;0.000;2023-04-03T16:21:16;20.90;39.30
38746;DHT22;24488;0.000;0.000;2023-04-03T16:23:43;20.90;39.30
38746;DHT22;24488;0.000;0.000;2023-04-03T16:26:09;20.90;38.80
38746;DHT22;24488;0.000;0.000;2023-04-03T16:28:35;20.90;39.30
38746;DHT22;24488;0.000;0.000;2023-04-03T16:31:01;20.90;39.30
38746;DHT22;24488;0.000;0.000;2023-04-03T16:33:26;20.90;39.30
38746;DHT22;24488;0.000;0.000;2023-04-03T16:35:52;20.90;38.80
38746;DHT22;24488;0.000;0.000;2023-04-03T16:38:18;20.90;39.30
38746;DHT22;24488;0.000;0.000;2023-04-03T16:40:44;20.90;39.30
38746;DHT22;24488;0.000;0.000;2023-04-03T16:43:10;20.90;39.30
38746;DHT22;24488;0.000;0.000;2023-04-03T16:45:36;20.90;38.80
38746;DHT22;24488;0.000;0.000;2023-04-03T16:48:01;20.90;39.30
38746;DHT22;24488;0.000;0.000;2023-04-03T16:50:27;20.90;39.30
38746;DHT22;24488;0.000;0.000;2023-04-03T16:52:53;20.90;39.20
38746;DHT22;24488;0.000;0.000;2023-04-03T16:55:18;20.90;38.80
38746;DHT22;24488;0.000;0.000;2023-04-03T16:57:45;20.90;39.40
38746;DHT22;24488;0.000;0.000;2023-04-03T17:00:11;20.90;39.30
38746;DHT22;24488;0.000;0.000;2023-04-03T17:02:38;20.90;39.30
38746;DHT22;24488;0.000;0.000;2023-04-03T17:05:04;20.90;38.70
38746;DHT22;24488;0.000;0.000;2023-04-03T17:07:30;20.90;39.20
38746;DHT22;24488;0.000;0.000;2023-04-03T17:09:56;20.90;39.20
38746;DHT22;24488;0.000;0.000;2023-04-03T17:12:21;20.90;39.20
38746;DHT22;24488;0.000;0.000;2023-04-03T17:14:47;20.90;38.80
38746;DHT22;24488;0.000;0.000;2023-04-03T17:17:13;20.90;39.30
38746;DHT22;24488;0.000;0.000;2023-04-03T17:19:40;20.90;39.20
38746;DHT22;24488;0.000;0.000;2023-04-03T17:22:07;20.90;39.20
38746;DHT22;24488;0.000;0.000;2023-04-03T17:24:33;20.90;38.80
38746;DHT22;24488;0.000;0.000;2023-04-03T17:26:59;20.90;39.30
38746;DHT22;24488;0.000;0.000;2023-04-03T17:29:25;20.90;39.30
38746;DHT22;24488;0.000;0.000;2023-04-03T17:31:50;20.90;39.20
38746;DHT22;24488;0.000;0.000;2023-04-03T17:34:16;20.90;38.80
38746;DHT22;24488;0.000;0.000;2023-04-03T17:36:41;20.90;39.20